Aviation Digital Data Service (ADDS)

Output produced by METARs form (1155 UTC 22 March 2019)
found at http://www.aviationweather.gov/metar/data/
 
Forecast for: TTCP (CROWN PT/SCARBOR, TT)
Text: TAF TTCP 221000Z 2212/2312 10015KT 9999 FEW022
Forecast period: 1200 UTC 22 March 2019 to 0000 UTC 23 March 2019
Forecast type: FROM: standard forecast or significant change
Winds: from the E (100 degrees) at 17 MPH (15 knots; 7.7 m/s)
Visibility: 6 or more miles 10+ km)
Ceiling: at least 12,000 feet AGL
Clouds: few clouds at 2200 feet AGL
Weather: no significant weather forecast for this period
Text: BECMG 2300/2302 09005KT
Forecast period: 0000 to 1200 UTC 23 March 2019
Forecast type: BECOMING: Conditions expected to become as follows by 0200 UTC 23 March 2019
Winds: from the E (90 degrees) at 6 MPH (5 knots; 2.6 m/s)
Visibility: 6 or more miles 10+ km)
Ceiling: at least 12,000 feet AGL
Clouds: few clouds at 2200 feet AGL
Weather: no significant weather forecast for this period